Time;durP1;ratioP1;P1;durP2;ratioP2;P2;SDS_P1;SDS_P2;PMS_P1;PMS_P2;Temp;Humidity;BMP_temperature;BMP_pressure;BME280_temperature;BME280_humidity;BME280_pressure;Samples;Min_cycle;Max_cycle;Signal;HPM_P1;HPM_P2
2021/12/19 00:00:16;;;;;;;;;;;-1.60;99.90;;;;;;6097160;23;20336;-85
2021/12/19 00:08:52;;;;;;;;;;;-1.60;99.90;;;;;;6076107;23;19928;-86
2021/12/19 00:11:21;;;;;;;;;;;-1.50;99.90;;;;;;6050132;23;19932;-86
2021/12/19 00:13:49;;;;;;;;;;;-1.60;99.90;;;;;;6107637;23;19925;-86
2021/12/19 00:16:17;;;;;;;;;;;-1.60;99.90;;;;;;6075390;23;19928;-85
2021/12/19 00:18:46;;;;;;;;;;;-1.60;99.90;;;;;;6073784;23;19928;-86
2021/12/19 00:21:15;;;;;;;;;;;-1.60;99.90;;;;;;6123608;23;19931;-85
2021/12/19 00:23:43;;;;;;;;;;;-1.60;99.90;;;;;;6127047;23;19930;-84
2021/12/19 00:26:11;;;;;;;;;;;-1.70;99.90;;;;;;6073640;23;19927;-84
2021/12/19 00:28:39;;;;;;;;;;;-1.80;99.90;;;;;;6072809;23;20337;-85
2021/12/19 00:31:06;;;;;;;;;;;-1.70;99.90;;;;;;6129683;23;19920;-85
2021/12/19 00:33:34;;;;;;;;;;;-1.70;99.90;;;;;;6098498;23;20594;-84
2021/12/19 00:36:02;;;;;;;;;;;-1.70;99.90;;;;;;6100126;23;20583;-84
2021/12/19 00:38:30;;;;;;;;;;;-1.70;99.90;;;;;;6105880;23;19936;-84
2021/12/19 00:40:58;;;;;;;;;;;-1.70;99.90;;;;;;6107953;23;20252;-85
2021/12/19 00:43:43;;;;;;;;;;;-1.70;99.90;;;;;;6127318;23;19921;-85
2021/12/19 00:46:15;;;;;;;;;;;-1.70;99.90;;;;;;6074205;23;20257;-84
2021/12/19 00:48:47;;;;;;;;;;;-1.70;99.90;;;;;;6084212;23;19920;-84
2021/12/19 00:51:17;;;;;;;;;;;-1.70;99.90;;;;;;6096525;23;20237;-84
2021/12/19 00:53:45;;;;;;;;;;;-1.70;99.90;;;;;;6049817;23;20335;-84
2021/12/19 00:56:13;;;;;;;;;;;-1.70;99.90;;;;;;6073152;23;20359;-85
2021/12/19 00:58:40;;;;;;;;;;;-1.70;99.90;;;;;;6104873;23;19932;-85
2021/12/19 01:01:08;;;;;;;;;;;-1.60;99.90;;;;;;6074037;23;19921;-85
2021/12/19 01:03:36;;;;;;;;;;;-1.60;99.90;;;;;;6072760;23;19921;-85
2021/12/19 01:06:04;;;;;;;;;;;-1.60;99.90;;;;;;6108042;23;19924;-85
2021/12/19 01:08:32;;;;;;;;;;;-1.50;99.90;;;;;;6096780;23;19928;-85
2021/12/19 01:10:59;;;;;;;;;;;-1.50;99.90;;;;;;6079735;23;19928;-85
2021/12/19 01:13:27;;;;;;;;;;;-1.50;99.90;;;;;;6106633;23;19921;-85
2021/12/19 01:15:57;;;;;;;;;;;-1.40;99.90;;;;;;6125948;23;19928;-85
2021/12/19 01:18:24;;;;;;;;;;;-1.40;99.90;;;;;;6106226;23;19921;-84
2021/12/19 01:20:52;;;;;;;;;;;-1.40;99.90;;;;;;6133343;23;19947;-85
2021/12/19 01:23:21;;;;;;;;;;;-1.30;99.90;;;;;;6128060;23;19924;-85
2021/12/19 01:25:50;;;;;;;;;;;-1.30;99.90;;;;;;6133429;23;20336;-85
2021/12/19 01:28:18;;;;;;;;;;;-1.30;99.90;;;;;;6097508;23;20335;-85
2021/12/19 01:30:47;;;;;;;;;;;-1.30;99.90;;;;;;6130087;23;19921;-85
2021/12/19 01:33:17;;;;;;;;;;;-1.30;99.90;;;;;;6097496;23;19925;-85
2021/12/19 01:35:45;;;;;;;;;;;-1.30;99.90;;;;;;6076429;23;19921;-84
2021/12/19 01:38:13;;;;;;;;;;;-1.30;99.90;;;;;;6106194;23;19925;-86
2021/12/19 01:40:40;;;;;;;;;;;-1.30;99.90;;;;;;6073729;23;19944;-85
2021/12/19 01:43:08;;;;;;;;;;;-1.30;99.90;;;;;;6101434;23;19925;-84
2021/12/19 01:45:37;;;;;;;;;;;-1.30;99.90;;;;;;6073159;23;19925;-85
2021/12/19 01:48:06;;;;;;;;;;;-1.30;99.90;;;;;;6099215;23;19974;-86
2021/12/19 01:50:34;;;;;;;;;;;-1.30;99.90;;;;;;6048863;23;19921;-87
2021/12/19 01:53:03;;;;;;;;;;;-1.40;99.90;;;;;;6133368;23;19921;-87
2021/12/19 01:55:31;;;;;;;;;;;-1.40;99.90;;;;;;6049044;23;19935;-86
2021/12/19 01:57:59;;;;;;;;;;;-1.40;99.90;;;;;;6132737;23;19931;-87
2021/12/19 02:00:31;;;;;;;;;;;-1.40;99.90;;;;;;6073467;23;19921;-87
2021/12/19 02:02:59;;;;;;;;;;;-1.40;99.90;;;;;;6103396;23;19932;-88
2021/12/19 02:05:27;;;;;;;;;;;-1.40;99.90;;;;;;6049875;23;19921;-86
2021/12/19 02:07:56;;;;;;;;;;;-1.40;99.90;;;;;;6099865;23;19928;-87
2021/12/19 02:10:25;;;;;;;;;;;-1.40;99.90;;;;;;6081497;23;19947;-86
2021/12/19 02:12:54;;;;;;;;;;;-1.40;99.90;;;;;;6096752;23;19932;-88
2021/12/19 02:15:22;;;;;;;;;;;-1.50;99.90;;;;;;6077718;23;20276;-87
2021/12/19 02:17:51;;;;;;;;;;;-1.50;99.90;;;;;;6133476;23;19932;-86
2021/12/19 02:20:20;;;;;;;;;;;-1.50;99.90;;;;;;6048782;23;19928;-85
2021/12/19 02:22:48;;;;;;;;;;;-1.50;99.90;;;;;;6096163;23;19933;-87
2021/12/19 02:25:16;;;;;;;;;;;-1.50;99.90;;;;;;6133114;23;19924;-87
2021/12/19 02:27:44;;;;;;;;;;;-1.50;99.90;;;;;;6099328;23;20248;-86
2021/12/19 02:30:13;;;;;;;;;;;-1.60;99.90;;;;;;6096048;23;21295;-87
2021/12/19 02:32:41;;;;;;;;;;;-1.60;99.90;;;;;;6133161;23;19925;-87
2021/12/19 02:35:15;;;;;;;;;;;-1.60;99.90;;;;;;6049071;23;20337;-87
2021/12/19 02:48:32;;;;;;;;;;;-1.60;99.90;;;;;;6123123;23;19925;-86
2021/12/19 02:51:01;;;;;;;;;;;-1.50;99.90;;;;;;6078952;23;19924;-86
2021/12/19 02:53:32;;;;;;;;;;;-1.60;99.90;;;;;;6107180;23;19948;-85
2021/12/19 02:56:01;;;;;;;;;;;-1.60;99.90;;;;;;6093448;23;19932;-86
2021/12/19 02:58:29;;;;;;;;;;;-1.60;99.90;;;;;;6066700;23;19925;-84
2021/12/19 03:01:13;;;;;;;;;;;-1.60;99.90;;;;;;6044582;23;20253;-86
2021/12/19 03:04:23;;;;;;;;;;;-1.60;99.90;;;;;;6045219;23;19921;-85
2021/12/19 03:07:20;;;;;;;;;;;-1.50;99.90;;;;;;6047941;23;19947;-85
2021/12/19 03:10:12;;;;;;;;;;;-1.50;99.90;;;;;;6101936;23;20226;-85
2021/12/19 03:18:10;;;;;;;;;;;-1.50;99.90;;;;;;6044260;23;19921;-87
2021/12/19 03:20:38;;;;;;;;;;;-1.60;99.90;;;;;;6042762;23;20665;-86
2021/12/19 03:23:07;;;;;;;;;;;-1.50;99.90;;;;;;6073080;23;19925;-85
2021/12/19 03:25:35;;;;;;;;;;;-1.60;99.90;;;;;;6077964;23;19929;-86
2021/12/19 03:28:03;;;;;;;;;;;-1.60;99.90;;;;;;6067581;23;19936;-86
2021/12/19 03:30:31;;;;;;;;;;;-1.60;99.90;;;;;;6045341;23;19928;-86
2021/12/19 03:32:59;;;;;;;;;;;-1.60;99.90;;;;;;6046568;23;20325;-85
2021/12/19 03:35:30;;;;;;;;;;;-1.50;99.90;;;;;;6045374;23;19941;-85
2021/12/19 03:38:00;;;;;;;;;;;-1.50;99.90;;;;;;6079384;23;19925;-85
2021/12/19 03:40:35;;;;;;;;;;;-1.50;99.90;;;;;;6070425;23;20360;-85
2021/12/19 03:43:04;;;;;;;;;;;-1.50;99.90;;;;;;6051355;23;20261;-85
2021/12/19 03:45:34;;;;;;;;;;;-1.60;99.90;;;;;;6046140;23;19925;-85
2021/12/19 03:48:03;;;;;;;;;;;-1.60;99.90;;;;;;6045139;23;19925;-86
2021/12/19 03:50:33;;;;;;;;;;;-1.60;99.90;;;;;;6101608;23;19929;-85
2021/12/19 03:53:32;;;;;;;;;;;-1.60;99.90;;;;;;6045696;23;20274;-87
2021/12/19 03:56:19;;;;;;;;;;;-1.60;99.90;;;;;;6068517;23;19932;-86
2021/12/19 03:58:53;;;;;;;;;;;-1.60;99.90;;;;;;6020985;23;20408;-86
2021/12/19 04:02:04;;;;;;;;;;;-1.60;99.90;;;;;;6045717;23;19925;-81
2021/12/19 04:04:36;;;;;;;;;;;-1.60;99.90;;;;;;6045529;23;19925;-81
2021/12/19 04:07:04;;;;;;;;;;;-1.60;99.90;;;;;;6074688;23;19925;-81
2021/12/19 04:09:31;;;;;;;;;;;-1.50;99.90;;;;;;6069658;23;19932;-81
2021/12/19 04:11:59;;;;;;;;;;;-1.50;99.90;;;;;;6096350;23;19933;-81
2021/12/19 04:14:26;;;;;;;;;;;-1.50;99.90;;;;;;6103237;23;19944;-81
2021/12/19 04:16:54;;;;;;;;;;;-1.50;99.90;;;;;;6045280;23;19925;-82
2021/12/19 04:19:21;;;;;;;;;;;-1.50;99.90;;;;;;6044888;23;20256;-82
2021/12/19 04:21:49;;;;;;;;;;;-1.50;99.90;;;;;;6078848;23;19932;-81
2021/12/19 04:24:16;;;;;;;;;;;-1.60;99.90;;;;;;6095460;23;19925;-81
2021/12/19 04:26:44;;;;;;;;;;;-1.70;99.90;;;;;;6076434;23;20327;-81
2021/12/19 04:29:12;;;;;;;;;;;-1.70;99.90;;;;;;6104071;23;19922;-81
2021/12/19 04:31:40;;;;;;;;;;;-1.70;99.90;;;;;;6072690;23;19921;-81
2021/12/19 04:34:07;;;;;;;;;;;-1.70;99.90;;;;;;6078881;23;19933;-81
2021/12/19 04:36:40;;;;;;;;;;;-1.70;99.90;;;;;;6094405;23;19928;-81
2021/12/19 04:54:21;;;;;;;;;;;-1.60;99.90;;;;;;6104357;23;19930;-81
2021/12/19 05:15:38;;;;;;;;;;;-1.70;99.90;;;;;;6097300;23;20234;-81
2021/12/19 05:18:09;;;;;;;;;;;-1.70;99.90;;;;;;6068919;23;20465;-81
2021/12/19 05:20:39;;;;;;;;;;;-1.70;99.90;;;;;;6067164;23;19945;-81
2021/12/19 05:23:20;;;;;;;;;;;-1.80;99.90;;;;;;6099397;23;20645;-81
2021/12/19 05:25:47;;;;;;;;;;;-1.70;99.90;;;;;;6044559;23;19921;-81
2021/12/19 05:28:15;;;;;;;;;;;-1.70;99.90;;;;;;6068393;23;19929;-81
2021/12/19 05:30:42;;;;;;;;;;;-1.60;99.90;;;;;;6067351;23;20156;-81
2021/12/19 05:33:11;;;;;;;;;;;-1.70;99.90;;;;;;6021108;23;19932;-83
2021/12/19 05:46:47;;;;;;;;;;;-1.90;99.90;;;;;;6074935;23;19932;-84
2021/12/19 05:49:15;;;;;;;;;;;-1.90;99.90;;;;;;6078345;23;19947;-83
2021/12/19 05:51:42;;;;;;;;;;;-1.90;99.90;;;;;;6071033;23;19937;-83
2021/12/19 05:54:10;;;;;;;;;;;-1.90;99.90;;;;;;6102115;23;19932;-83
2021/12/19 05:56:40;;;;;;;;;;;-1.90;99.90;;;;;;6112715;23;19929;-83
2021/12/19 05:59:09;;;;;;;;;;;-1.90;99.90;;;;;;6128022;23;19921;-83
2021/12/19 06:01:42;;;;;;;;;;;-1.90;99.90;;;;;;6132683;23;19932;-84
2021/12/19 06:04:11;;;;;;;;;;;-1.90;99.90;;;;;;6124110;23;19921;-83
2021/12/19 06:06:38;;;;;;;;;;;-1.90;99.90;;;;;;6072881;23;20388;-84
2021/12/19 06:09:06;;;;;;;;;;;-1.90;99.90;;;;;;6106437;23;19921;-83
2021/12/19 06:11:34;;;;;;;;;;;-1.90;99.90;;;;;;6095914;23;19924;-83
2021/12/19 06:14:01;;;;;;;;;;;-2.00;99.90;;;;;;6131743;23;19921;-83
2021/12/19 06:16:30;;;;;;;;;;;-1.90;99.90;;;;;;6123118;23;20680;-83
2021/12/19 06:18:57;;;;;;;;;;;-1.90;99.90;;;;;;6072451;23;20340;-84
2021/12/19 06:21:25;;;;;;;;;;;-1.90;99.90;;;;;;6096221;23;19932;-83
2021/12/19 06:23:52;;;;;;;;;;;-2.00;99.90;;;;;;6099427;23;19925;-83
2021/12/19 06:26:20;;;;;;;;;;;-2.00;99.90;;;;;;6048292;23;19932;-83
2021/12/19 06:28:47;;;;;;;;;;;-2.00;99.90;;;;;;6072421;23;19925;-83
2021/12/19 06:31:15;;;;;;;;;;;-1.90;99.90;;;;;;6072534;23;20267;-83
2021/12/19 06:33:43;;;;;;;;;;;-1.90;99.90;;;;;;6133039;23;19933;-83
2021/12/19 06:36:11;;;;;;;;;;;-1.90;99.90;;;;;;6074147;23;19925;-83
2021/12/19 06:38:38;;;;;;;;;;;-1.80;99.90;;;;;;6130416;23;19925;-83
2021/12/19 06:41:06;;;;;;;;;;;-1.80;99.90;;;;;;6097094;23;19925;-83
2021/12/19 06:43:33;;;;;;;;;;;-1.70;99.90;;;;;;6072114;23;19929;-83
2021/12/19 06:46:02;;;;;;;;;;;-1.70;99.90;;;;;;6073917;23;20265;-83
2021/12/19 06:48:34;;;;;;;;;;;-1.70;99.90;;;;;;6074007;23;19979;-83
2021/12/19 06:51:01;;;;;;;;;;;-1.70;99.90;;;;;;6048227;23;19924;-83
2021/12/19 06:53:29;;;;;;;;;;;-1.70;99.90;;;;;;6101696;23;20344;-83
2021/12/19 06:55:58;;;;;;;;;;;-1.70;99.90;;;;;;6096653;23;19924;-83
2021/12/19 06:58:25;;;;;;;;;;;-1.70;99.90;;;;;;6129248;23;19921;-82
2021/12/19 07:00:53;;;;;;;;;;;-1.70;99.90;;;;;;6133274;23;19921;-82
2021/12/19 07:03:23;;;;;;;;;;;-1.70;99.90;;;;;;6105342;23;20249;-83
2021/12/19 07:05:51;;;;;;;;;;;-1.80;99.90;;;;;;6135943;23;19924;-78
2021/12/19 07:08:22;;;;;;;;;;;-1.80;99.90;;;;;;6100375;23;19932;-78
2021/12/19 07:10:49;;;;;;;;;;;-1.80;99.90;;;;;;6131224;23;19920;-77
2021/12/19 07:13:20;;;;;;;;;;;-1.80;99.90;;;;;;6134979;23;19959;-78
2021/12/19 07:15:53;;;;;;;;;;;-1.80;99.90;;;;;;6125563;23;19936;-77
2021/12/19 07:18:21;;;;;;;;;;;-1.80;99.90;;;;;;6134247;23;19928;-78
2021/12/19 07:20:49;;;;;;;;;;;-1.80;99.90;;;;;;6135404;23;19947;-78
2021/12/19 07:23:20;;;;;;;;;;;-1.80;99.90;;;;;;6105326;23;19925;-76
2021/12/19 07:25:48;;;;;;;;;;;-1.70;99.90;;;;;;6135377;23;19932;-78
2021/12/19 07:28:16;;;;;;;;;;;-1.70;99.90;;;;;;6125927;23;19955;-79
2021/12/19 07:30:48;;;;;;;;;;;-1.80;99.90;;;;;;6131770;23;20256;-78
2021/12/19 07:33:17;;;;;;;;;;;-1.80;99.90;;;;;;6135403;23;19931;-78
2021/12/19 07:35:47;;;;;;;;;;;-1.80;99.90;;;;;;6127144;23;19936;-78
2021/12/19 07:38:30;;;;;;;;;;;-1.80;99.90;;;;;;6134160;23;20252;-78
2021/12/19 07:40:59;;;;;;;;;;;-1.80;99.90;;;;;;6134951;23;19920;-77
2021/12/19 07:43:26;;;;;;;;;;;-1.80;99.90;;;;;;6098228;23;19921;-78
2021/12/19 07:45:55;;;;;;;;;;;-1.80;99.90;;;;;;6099677;23;20313;-78
2021/12/19 07:48:22;;;;;;;;;;;-1.80;99.90;;;;;;6100929;23;20238;-78
2021/12/19 07:50:50;;;;;;;;;;;-1.70;99.90;;;;;;6098959;23;20237;-78
2021/12/19 07:53:18;;;;;;;;;;;-1.80;99.90;;;;;;6135184;23;19932;-78
2021/12/19 07:55:45;;;;;;;;;;;-1.80;99.90;;;;;;6102249;23;19929;-78
2021/12/19 07:58:12;;;;;;;;;;;-1.70;99.90;;;;;;6134178;23;19927;-78
2021/12/19 08:00:40;;;;;;;;;;;-1.70;99.90;;;;;;6134979;23;19921;-78
2021/12/19 08:03:08;;;;;;;;;;;-1.70;99.90;;;;;;6105411;23;19921;-78
2021/12/19 08:05:35;;;;;;;;;;;-1.70;99.90;;;;;;6135592;23;19932;-78
2021/12/19 08:08:05;;;;;;;;;;;-1.60;99.90;;;;;;6126902;23;19921;-78
2021/12/19 08:13:04;;;;;;;;;;;-1.60;99.90;;;;;;6133560;23;19974;-77
2021/12/19 08:15:32;;;;;;;;;;;-1.70;99.90;;;;;;6127734;23;19925;-78
2021/12/19 08:17:59;;;;;;;;;;;-1.60;99.90;;;;;;6108229;23;19925;-78
2021/12/19 08:20:27;;;;;;;;;;;-1.60;99.90;;;;;;6123856;23;19925;-78
2021/12/19 08:22:55;;;;;;;;;;;-1.60;99.90;;;;;;6130012;23;19936;-78
2021/12/19 08:25:24;;;;;;;;;;;-1.60;99.90;;;;;;6133379;23;19925;-78
2021/12/19 08:27:51;;;;;;;;;;;-1.60;99.90;;;;;;6125723;23;19991;-77
2021/12/19 08:30:20;;;;;;;;;;;-1.60;99.90;;;;;;6132290;23;19925;-78
2021/12/19 08:32:48;;;;;;;;;;;-1.60;99.90;;;;;;6132979;23;19931;-77
2021/12/19 08:35:15;;;;;;;;;;;-1.50;99.90;;;;;;6126133;23;19931;-77
2021/12/19 08:37:43;;;;;;;;;;;-1.40;99.90;;;;;;6133074;23;20610;-78
2021/12/19 08:40:11;;;;;;;;;;;-1.40;99.90;;;;;;6123902;23;19920;-77
2021/12/19 08:42:39;;;;;;;;;;;-1.40;99.90;;;;;;6130063;23;19932;-78
2021/12/19 08:45:08;;;;;;;;;;;-1.30;99.90;;;;;;6133262;23;19920;-78
2021/12/19 08:47:36;;;;;;;;;;;-1.30;99.90;;;;;;6101419;23;19920;-77
2021/12/19 08:50:04;;;;;;;;;;;-1.30;99.90;;;;;;6133154;23;19929;-77
2021/12/19 08:52:32;;;;;;;;;;;-1.20;99.90;;;;;;6120130;23;19932;-77
2021/12/19 08:54:59;;;;;;;;;;;-1.30;99.90;;;;;;6125385;23;20590;-77
2021/12/19 08:57:28;;;;;;;;;;;-1.30;99.90;;;;;;6132173;23;19959;-77
2021/12/19 08:59:57;;;;;;;;;;;-1.20;99.90;;;;;;6125516;23;20288;-77
2021/12/19 09:02:25;;;;;;;;;;;-1.20;99.90;;;;;;6131292;23;19929;-77
2021/12/19 09:04:52;;;;;;;;;;;-1.20;99.90;;;;;;6132250;23;19932;-77
2021/12/19 09:07:21;;;;;;;;;;;-1.20;99.90;;;;;;6127359;23;19936;-77
2021/12/19 09:09:52;;;;;;;;;;;-1.30;99.90;;;;;;6073409;23;19925;-81
2021/12/19 09:12:20;;;;;;;;;;;-1.30;99.90;;;;;;6122460;23;19933;-81
2021/12/19 09:14:47;;;;;;;;;;;-1.30;99.90;;;;;;6129774;23;19925;-81
2021/12/19 09:17:15;;;;;;;;;;;-1.30;99.90;;;;;;6132412;23;19932;-80
2021/12/19 09:19:42;;;;;;;;;;;-1.20;99.90;;;;;;6126272;23;19925;-81
2021/12/19 09:22:10;;;;;;;;;;;-1.10;99.90;;;;;;6132417;23;20222;-80
2021/12/19 09:24:38;;;;;;;;;;;-1.00;99.90;;;;;;6095672;23;19921;-81
2021/12/19 09:27:08;;;;;;;;;;;-1.00;99.90;;;;;;6127901;23;20621;-81
2021/12/19 09:29:36;;;;;;;;;;;-0.80;99.90;;;;;;6133097;23;19931;-83
2021/12/19 09:32:04;;;;;;;;;;;-0.60;99.90;;;;;;6095736;23;19929;-83
2021/12/19 09:34:32;;;;;;;;;;;0.00;99.90;;;;;;6130877;23;19929;-83
2021/12/19 09:37:00;;;;;;;;;;;0.40;99.90;;;;;;6123565;23;19925;-82
2021/12/19 09:39:33;;;;;;;;;;;0.40;99.90;;;;;;6101784;23;19921;-89
2021/12/19 09:43:01;;;;;;;;;;;0.00;99.90;;;;;;6072472;23;19924;-88
2021/12/19 09:45:34;;;;;;;;;;;-0.20;99.90;;;;;;6088729;23;19925;-89
2021/12/19 09:49:10;;;;;;;;;;;-0.10;99.90;;;;;;6105472;23;19921;-88
2021/12/19 09:51:48;;;;;;;;;;;0.00;99.90;;;;;;6073177;23;19932;-86
2021/12/19 09:54:15;;;;;;;;;;;-0.10;99.90;;;;;;6131628;23;19925;-86
2021/12/19 09:56:43;;;;;;;;;;;-0.30;99.90;;;;;;6099971;23;19948;-84
2021/12/19 09:59:18;;;;;;;;;;;-0.40;99.90;;;;;;6101973;23;20311;-85
2021/12/19 10:01:46;;;;;;;;;;;-0.40;99.90;;;;;;6132975;23;19932;-86
2021/12/19 10:04:36;;;;;;;;;;;-0.40;99.90;;;;;;6098522;23;19925;-85
2021/12/19 10:07:19;;;;;;;;;;;-0.30;99.90;;;;;;6098885;23;19921;-85
2021/12/19 10:09:54;;;;;;;;;;;-0.10;99.90;;;;;;6108949;23;19948;-87
2021/12/19 10:13:10;;;;;;;;;;;-0.10;99.90;;;;;;6095017;23;19925;-84
2021/12/19 10:15:16;;;;;;;;;;;0.00;99.90;;;;;;6086295;23;19924;-86
2021/12/19 10:17:45;;;;;;;;;;;-0.10;99.90;;;;;;6073074;23;20250;-85
2021/12/19 10:20:14;;;;;;;;;;;-0.10;99.90;;;;;;6072667;23;19925;-85
2021/12/19 10:22:46;;;;;;;;;;;-0.10;99.90;;;;;;6104103;23;19921;-90
2021/12/19 10:25:17;;;;;;;;;;;0.10;99.90;;;;;;6083673;23;19921;-89
2021/12/19 10:27:46;;;;;;;;;;;0.30;99.90;;;;;;6048590;23;19921;-89
2021/12/19 10:30:40;;;;;;;;;;;0.40;99.90;;;;;;6070110;23;20248;-89
2021/12/19 10:33:09;;;;;;;;;;;0.60;99.90;;;;;;6068483;23;19921;-88
2021/12/19 10:35:49;;;;;;;;;;;0.60;99.90;;;;;;6045310;23;19936;-84
2021/12/19 10:38:25;;;;;;;;;;;0.90;99.90;;;;;;6068442;23;19921;-87
